sensor_id;sensor_type;location;lat;lon;timestamp;P1;durP1;ratioP1;P2;durP2;ratioP2
64052;SDS011;50299;49.524;8.536;2023-02-13T00:00:29;37.15;;;15.75;;
64052;SDS011;50299;49.524;8.536;2023-02-13T00:03:02;666.40;;;67.22;;
64052;SDS011;50299;49.524;8.536;2023-02-13T00:05:30;656.40;;;69.88;;
64052;SDS011;50299;49.524;8.536;2023-02-13T00:07:56;176.98;;;27.30;;
64052;SDS011;50299;49.524;8.536;2023-02-13T00:10:31;766.65;;;72.80;;
64052;SDS011;50299;49.524;8.536;2023-02-13T00:13:04;44.08;;;16.88;;
64052;SDS011;50299;49.524;8.536;2023-02-13T00:15:30;42.88;;;16.00;;
64052;SDS011;50299;49.524;8.536;2023-02-13T00:18:04;45.70;;;14.30;;
64052;SDS011;50299;49.524;8.536;2023-02-13T00:20:30;25.83;;;13.20;;
64052;SDS011;50299;49.524;8.536;2023-02-13T00:23:03;38.67;;;15.02;;
64052;SDS011;50299;49.524;8.536;2023-02-13T00:25:37;40.67;;;13.05;;
64052;SDS011;50299;49.524;8.536;2023-02-13T00:28:10;41.45;;;14.02;;
64052;SDS011;50299;49.524;8.536;2023-02-13T00:30:36;342.15;;;39.08;;
64052;SDS011;50299;49.524;8.536;2023-02-13T00:33:09;43.60;;;14.90;;
64052;SDS011;50299;49.524;8.536;2023-02-13T00:35:42;674.83;;;63.47;;
64052;SDS011;50299;49.524;8.536;2023-02-13T00:38:15;1027.82;;;100.03;;
64052;SDS011;50299;49.524;8.536;2023-02-13T00:40:48;1084.47;;;107.45;;
64052;SDS011;50299;49.524;8.536;2023-02-13T00:43:14;43.03;;;17.25;;
64052;SDS011;50299;49.524;8.536;2023-02-13T00:45:47;35.80;;;14.70;;
64052;SDS011;50299;49.524;8.536;2023-02-13T00:48:13;29.27;;;14.05;;
64052;SDS011;50299;49.524;8.536;2023-02-13T00:50:40;28.23;;;12.93;;
64052;SDS011;50299;49.524;8.536;2023-02-13T00:53:13;279.42;;;30.17;;
64052;SDS011;50299;49.524;8.536;2023-02-13T00:55:39;753.90;;;67.47;;
64052;SDS011;50299;49.524;8.536;2023-02-13T00:58:06;31.15;;;15.00;;
64052;SDS011;50299;49.524;8.536;2023-02-13T01:00:39;33.72;;;13.35;;
64052;SDS011;50299;49.524;8.536;2023-02-13T01:03:06;34.25;;;13.77;;
64052;SDS011;50299;49.524;8.536;2023-02-13T01:05:32;31.35;;;13.05;;
64052;SDS011;50299;49.524;8.536;2023-02-13T01:08:06;34.70;;;13.80;;
64052;SDS011;50299;49.524;8.536;2023-02-13T01:10:32;69.30;;;15.35;;
64052;SDS011;50299;49.524;8.536;2023-02-13T01:13:06;38.03;;;15.65;;
64052;SDS011;50299;49.524;8.536;2023-02-13T01:15:34;50.92;;;17.90;;
64052;SDS011;50299;49.524;8.536;2023-02-13T01:18:21;48.70;;;19.40;;
64052;SDS011;50299;49.524;8.536;2023-02-13T01:20:57;61.45;;;20.73;;
64052;SDS011;50299;49.524;8.536;2023-02-13T01:23:36;946.45;;;94.20;;
64052;SDS011;50299;49.524;8.536;2023-02-13T01:26:07;94.90;;;22.90;;
64052;SDS011;50299;49.524;8.536;2023-02-13T01:28:44;41.58;;;18.15;;
64052;SDS011;50299;49.524;8.536;2023-02-13T01:31:11;44.63;;;18.13;;
64052;SDS011;50299;49.524;8.536;2023-02-13T01:33:43;64.13;;;20.30;;
64052;SDS011;50299;49.524;8.536;2023-02-13T01:36:16;54.33;;;19.80;;
64052;SDS011;50299;49.524;8.536;2023-02-13T01:38:53;57.40;;;19.38;;
64052;SDS011;50299;49.524;8.536;2023-02-13T01:41:21;69.28;;;21.20;;
64052;SDS011;50299;49.524;8.536;2023-02-13T01:43:56;305.27;;;40.05;;
64052;SDS011;50299;49.524;8.536;2023-02-13T01:46:40;64.22;;;21.67;;
64052;SDS011;50299;49.524;8.536;2023-02-13T01:49:17;49.70;;;21.90;;
64052;SDS011;50299;49.524;8.536;2023-02-13T01:51:49;42.70;;;18.05;;
64052;SDS011;50299;49.524;8.536;2023-02-13T01:54:27;43.42;;;19.90;;
64052;SDS011;50299;49.524;8.536;2023-02-13T01:56:58;44.88;;;18.90;;
64052;SDS011;50299;49.524;8.536;2023-02-13T02:00:10;46.10;;;18.73;;
64052;SDS011;50299;49.524;8.536;2023-02-13T02:02:33;49.88;;;17.63;;
64052;SDS011;50299;49.524;8.536;2023-02-13T02:05:11;550.80;;;70.95;;
64052;SDS011;50299;49.524;8.536;2023-02-13T02:07:38;100.75;;;24.33;;
64052;SDS011;50299;49.524;8.536;2023-02-13T02:10:16;50.45;;;19.50;;
64052;SDS011;50299;49.524;8.536;2023-02-13T02:12:57;318.63;;;46.35;;
64052;SDS011;50299;49.524;8.536;2023-02-13T02:15:36;104.35;;;22.90;;
64052;SDS011;50299;49.524;8.536;2023-02-13T02:18:23;64.13;;;20.95;;
64052;SDS011;50299;49.524;8.536;2023-02-13T02:39:00;31.08;;;15.02;;
64052;SDS011;50299;49.524;8.536;2023-02-13T02:44:51;699.00;;;87.00;;
64052;SDS011;50299;49.524;8.536;2023-02-13T02:47:24;54.22;;;19.33;;
64052;SDS011;50299;49.524;8.536;2023-02-13T02:50:24;381.25;;;46.83;;
64052;SDS011;50299;49.524;8.536;2023-02-13T02:56:11;32.75;;;14.38;;
64052;SDS011;50299;49.524;8.536;2023-02-13T03:01:36;25.60;;;13.45;;
64052;SDS011;50299;49.524;8.536;2023-02-13T03:04:31;1204.55;;;109.78;;
64052;SDS011;50299;49.524;8.536;2023-02-13T03:07:28;1388.90;;;162.77;;
64052;SDS011;50299;49.524;8.536;2023-02-13T03:09:55;1962.13;;;230.25;;
64052;SDS011;50299;49.524;8.536;2023-02-13T03:13:03;361.27;;;55.13;;
64052;SDS011;50299;49.524;8.536;2023-02-13T03:16:00;911.38;;;88.32;;
64052;SDS011;50299;49.524;8.536;2023-02-13T03:18:54;34.00;;;13.15;;
64052;SDS011;50299;49.524;8.536;2023-02-13T03:21:52;121.30;;;20.33;;
64052;SDS011;50299;49.524;8.536;2023-02-13T03:27:54;99.45;;;21.33;;
64052;SDS011;50299;49.524;8.536;2023-02-13T03:31:03;78.60;;;16.40;;
64052;SDS011;50299;49.524;8.536;2023-02-13T03:37:04;547.03;;;43.15;;
64052;SDS011;50299;49.524;8.536;2023-02-13T03:40:14;825.08;;;67.10;;
64052;SDS011;50299;49.524;8.536;2023-02-13T03:42:55;83.35;;;22.90;;
64052;SDS011;50299;49.524;8.536;2023-02-13T03:45:35;438.35;;;50.97;;
64052;SDS011;50299;49.524;8.536;2023-02-13T03:48:28;49.25;;;17.42;;
64052;SDS011;50299;49.524;8.536;2023-02-13T03:51:20;239.18;;;36.47;;
64052;SDS011;50299;49.524;8.536;2023-02-13T03:54:00;24.35;;;13.02;;
64052;SDS011;50299;49.524;8.536;2023-02-13T03:56:36;21.73;;;11.50;;
64052;SDS011;50299;49.524;8.536;2023-02-13T03:59:33;41.50;;;12.18;;
64052;SDS011;50299;49.524;8.536;2023-02-13T04:04:56;22.98;;;11.82;;
64052;SDS011;50299;49.524;8.536;2023-02-13T04:07:29;30.35;;;12.75;;
64052;SDS011;50299;49.524;8.536;2023-02-13T04:10:05;60.33;;;15.63;;
64052;SDS011;50299;49.524;8.536;2023-02-13T04:18:00;20.85;;;10.75;;
64052;SDS011;50299;49.524;8.536;2023-02-13T04:20:38;24.45;;;12.45;;
64052;SDS011;50299;49.524;8.536;2023-02-13T04:23:05;29.60;;;11.43;;
64052;SDS011;50299;49.524;8.536;2023-02-13T04:25:36;51.22;;;13.32;;
64052;SDS011;50299;49.524;8.536;2023-02-13T04:28:11;25.42;;;11.82;;
64052;SDS011;50299;49.524;8.536;2023-02-13T04:30:38;26.52;;;11.90;;
64052;SDS011;50299;49.524;8.536;2023-02-13T04:33:04;65.18;;;14.80;;
64052;SDS011;50299;49.524;8.536;2023-02-13T04:35:37;850.08;;;68.10;;
64052;SDS011;50299;49.524;8.536;2023-02-13T04:38:10;409.00;;;41.22;;
64052;SDS011;50299;49.524;8.536;2023-02-13T04:40:45;809.90;;;68.82;;
64052;SDS011;50299;49.524;8.536;2023-02-13T04:43:12;35.33;;;15.20;;
64052;SDS011;50299;49.524;8.536;2023-02-13T04:45:38;686.00;;;57.38;;
64052;SDS011;50299;49.524;8.536;2023-02-13T04:48:11;33.58;;;14.55;;
64052;SDS011;50299;49.524;8.536;2023-02-13T04:50:38;117.85;;;17.00;;
64052;SDS011;50299;49.524;8.536;2023-02-13T04:53:04;469.95;;;43.95;;
64052;SDS011;50299;49.524;8.536;2023-02-13T04:55:37;825.00;;;71.70;;
64052;SDS011;50299;49.524;8.536;2023-02-13T04:58:04;57.50;;;15.30;;
64052;SDS011;50299;49.524;8.536;2023-02-13T05:00:37;1999.90;;;171.05;;
64052;SDS011;50299;49.524;8.536;2023-02-13T05:03:04;1736.93;;;138.55;;
64052;SDS011;50299;49.524;8.536;2023-02-13T05:05:40;1321.55;;;115.57;;
64052;SDS011;50299;49.524;8.536;2023-02-13T05:08:06;1999.90;;;236.57;;
64052;SDS011;50299;49.524;8.536;2023-02-13T05:10:39;313.23;;;56.83;;
64052;SDS011;50299;49.524;8.536;2023-02-13T05:13:12;23.92;;;12.68;;
64052;SDS011;50299;49.524;8.536;2023-02-13T05:15:46;378.45;;;37.75;;
64052;SDS011;50299;49.524;8.536;2023-02-13T05:18:27;31.67;;;11.70;;
64052;SDS011;50299;49.524;8.536;2023-02-13T05:20:53;25.13;;;11.50;;
64052;SDS011;50299;49.524;8.536;2023-02-13T05:23:44;1999.90;;;157.93;;
64052;SDS011;50299;49.524;8.536;2023-02-13T05:26:16;32.20;;;12.13;;
64052;SDS011;50299;49.524;8.536;2023-02-13T05:28:42;1999.90;;;195.50;;
64052;SDS011;50299;49.524;8.536;2023-02-13T05:31:34;1432.15;;;128.75;;
64052;SDS011;50299;49.524;8.536;2023-02-13T05:34:00;1292.57;;;119.07;;
64052;SDS011;50299;49.524;8.536;2023-02-13T05:36:33;550.83;;;75.28;;
64052;SDS011;50299;49.524;8.536;2023-02-13T05:39:00;247.82;;;29.90;;
64052;SDS011;50299;49.524;8.536;2023-02-13T05:41:26;46.75;;;15.55;;
64052;SDS011;50299;49.524;8.536;2023-02-13T05:43:58;1412.15;;;109.88;;
64052;SDS011;50299;49.524;8.536;2023-02-13T05:46:32;38.85;;;14.65;;
64052;SDS011;50299;49.524;8.536;2023-02-13T05:49:05;302.73;;;30.92;;
64052;SDS011;50299;49.524;8.536;2023-02-13T05:51:33;59.08;;;15.10;;
64052;SDS011;50299;49.524;8.536;2023-02-13T05:53:59;858.65;;;58.72;;
64052;SDS011;50299;49.524;8.536;2023-02-13T05:56:31;64.07;;;15.45;;
64052;SDS011;50299;49.524;8.536;2023-02-13T05:58:58;1999.90;;;268.45;;
64052;SDS011;50299;49.524;8.536;2023-02-13T06:01:24;1999.90;;;326.63;;
64052;SDS011;50299;49.524;8.536;2023-02-13T06:03:59;84.70;;;21.02;;
64052;SDS011;50299;49.524;8.536;2023-02-13T06:06:32;35.55;;;14.80;;
64052;SDS011;50299;49.524;8.536;2023-02-13T06:08:58;27.30;;;12.00;;
64052;SDS011;50299;49.524;8.536;2023-02-13T06:11:32;28.23;;;13.18;;
64052;SDS011;50299;49.524;8.536;2023-02-13T06:13:58;30.65;;;13.40;;
64052;SDS011;50299;49.524;8.536;2023-02-13T06:16:37;1999.90;;;211.88;;
64052;SDS011;50299;49.524;8.536;2023-02-13T06:19:18;1250.68;;;107.90;;
64052;SDS011;50299;49.524;8.536;2023-02-13T06:21:52;1461.60;;;118.53;;
64052;SDS011;50299;49.524;8.536;2023-02-13T06:24:18;41.72;;;14.07;;
64052;SDS011;50299;49.524;8.536;2023-02-13T06:26:44;27.00;;;12.77;;
64052;SDS011;50299;49.524;8.536;2023-02-13T06:29:18;31.85;;;13.05;;
64052;SDS011;50299;49.524;8.536;2023-02-13T06:31:51;785.45;;;70.25;;
64052;SDS011;50299;49.524;8.536;2023-02-13T06:34:17;31.27;;;13.77;;
64052;SDS011;50299;49.524;8.536;2023-02-13T06:36:44;30.48;;;13.90;;
64052;SDS011;50299;49.524;8.536;2023-02-13T06:39:17;43.40;;;14.20;;
64052;SDS011;50299;49.524;8.536;2023-02-13T06:41:50;33.33;;;14.32;;
64052;SDS011;50299;49.524;8.536;2023-02-13T06:44:23;1999.90;;;243.65;;
64052;SDS011;50299;49.524;8.536;2023-02-13T06:46:56;1999.90;;;346.17;;
64052;SDS011;50299;49.524;8.536;2023-02-13T06:49:22;1999.90;;;579.63;;
64052;SDS011;50299;49.524;8.536;2023-02-13T06:51:49;1997.80;;;342.63;;
64052;SDS011;50299;49.524;8.536;2023-02-13T06:54:22;54.67;;;18.23;;
64052;SDS011;50299;49.524;8.536;2023-02-13T06:57:06;29.83;;;14.45;;
64052;SDS011;50299;49.524;8.536;2023-02-13T06:59:40;30.83;;;13.68;;
64052;SDS011;50299;49.524;8.536;2023-02-13T07:02:08;34.20;;;13.20;;
64052;SDS011;50299;49.524;8.536;2023-02-13T07:04:35;205.40;;;24.00;;
64052;SDS011;50299;49.524;8.536;2023-02-13T07:07:08;38.25;;;15.52;;
64052;SDS011;50299;49.524;8.536;2023-02-13T07:09:34;402.08;;;46.95;;
64052;SDS011;50299;49.524;8.536;2023-02-13T07:12:01;1206.55;;;116.30;;
64052;SDS011;50299;49.524;8.536;2023-02-13T07:14:43;188.02;;;25.77;;
64052;SDS011;50299;49.524;8.536;2023-02-13T07:17:23;206.70;;;22.45;;
64052;SDS011;50299;49.524;8.536;2023-02-13T07:20:00;473.50;;;58.83;;
64052;SDS011;50299;49.524;8.536;2023-02-13T07:22:27;71.25;;;17.67;;
64052;SDS011;50299;49.524;8.536;2023-02-13T07:24:53;1999.90;;;577.97;;
64052;SDS011;50299;49.524;8.536;2023-02-13T07:27:26;1999.90;;;526.35;;
64052;SDS011;50299;49.524;8.536;2023-02-13T07:29:59;1999.90;;;340.58;;
64052;SDS011;50299;49.524;8.536;2023-02-13T07:32:32;1713.47;;;258.48;;
64052;SDS011;50299;49.524;8.536;2023-02-13T07:35:00;285.00;;;41.45;;
64052;SDS011;50299;49.524;8.536;2023-02-13T07:37:28;138.95;;;23.00;;
64052;SDS011;50299;49.524;8.536;2023-02-13T07:40:04;26.35;;;14.85;;
64052;SDS011;50299;49.524;8.536;2023-02-13T07:42:34;1999.90;;;299.38;;
64052;SDS011;50299;49.524;8.536;2023-02-13T07:45:07;42.90;;;18.40;;
64052;SDS011;50299;49.524;8.536;2023-02-13T07:47:40;28.05;;;15.55;;
64052;SDS011;50299;49.524;8.536;2023-02-13T07:50:07;26.38;;;16.80;;
64052;SDS011;50299;49.524;8.536;2023-02-13T07:52:41;1630.88;;;232.45;;
64052;SDS011;50299;49.524;8.536;2023-02-13T07:55:07;1450.75;;;168.93;;
64052;SDS011;50299;49.524;8.536;2023-02-13T07:57:36;1579.80;;;176.48;;
64052;SDS011;50299;49.524;8.536;2023-02-13T08:00:11;1052.53;;;154.63;;
64052;SDS011;50299;49.524;8.536;2023-02-13T08:02:45;834.25;;;103.03;;
64052;SDS011;50299;49.524;8.536;2023-02-13T08:05:12;1713.35;;;228.85;;
64052;SDS011;50299;49.524;8.536;2023-02-13T08:07:39;1483.10;;;201.10;;
64052;SDS011;50299;49.524;8.536;2023-02-13T08:10:12;1474.25;;;223.15;;
64052;SDS011;50299;49.524;8.536;2023-02-13T08:13:04;1999.90;;;617.30;;
64052;SDS011;50299;49.524;8.536;2023-02-13T08:15:46;1999.90;;;653.88;;
64052;SDS011;50299;49.524;8.536;2023-02-13T08:18:12;1999.90;;;487.73;;
64052;SDS011;50299;49.524;8.536;2023-02-13T08:20:38;1999.90;;;410.45;;
64052;SDS011;50299;49.524;8.536;2023-02-13T08:23:11;1999.90;;;475.73;;
64052;SDS011;50299;49.524;8.536;2023-02-13T08:25:44;1819.20;;;320.05;;
64052;SDS011;50299;49.524;8.536;2023-02-13T08:28:12;1961.70;;;286.80;;
64052;SDS011;50299;49.524;8.536;2023-02-13T08:30:39;1999.18;;;343.00;;
64052;SDS011;50299;49.524;8.536;2023-02-13T08:33:12;792.17;;;125.28;;
64052;SDS011;50299;49.524;8.536;2023-02-13T08:35:38;187.77;;;45.85;;
64052;SDS011;50299;49.524;8.536;2023-02-13T08:38:05;187.00;;;50.47;;
64052;SDS011;50299;49.524;8.536;2023-02-13T08:40:38;222.70;;;44.92;;
64052;SDS011;50299;49.524;8.536;2023-02-13T08:43:13;35.45;;;21.40;;
64052;SDS011;50299;49.524;8.536;2023-02-13T08:45:39;52.83;;;22.38;;
64052;SDS011;50299;49.524;8.536;2023-02-13T08:48:12;43.25;;;21.38;;
64052;SDS011;50299;49.524;8.536;2023-02-13T08:50:45;38.65;;;20.42;;
64052;SDS011;50299;49.524;8.536;2023-02-13T08:53:11;201.23;;;37.60;;
64052;SDS011;50299;49.524;8.536;2023-02-13T08:55:54;28.73;;;20.27;;
64052;SDS011;50299;49.524;8.536;2023-02-13T08:58:22;34.28;;;21.45;;
64052;SDS011;50299;49.524;8.536;2023-02-13T09:00:55;34.40;;;19.92;;
64052;SDS011;50299;49.524;8.536;2023-02-13T09:03:21;35.75;;;22.90;;
64052;SDS011;50299;49.524;8.536;2023-02-13T09:05:48;40.58;;;21.60;;
64052;SDS011;50299;49.524;8.536;2023-02-13T09:08:21;35.85;;;24.30;;
64052;SDS011;50299;49.524;8.536;2023-02-13T09:10:57;33.03;;;22.00;;
64052;SDS011;50299;49.524;8.536;2023-02-13T09:13:33;35.88;;;22.98;;
64052;SDS011;50299;49.524;8.536;2023-02-13T09:16:05;40.25;;;23.15;;
64052;SDS011;50299;49.524;8.536;2023-02-13T09:18:46;38.90;;;24.15;;
64052;SDS011;50299;49.524;8.536;2023-02-13T09:21:13;34.80;;;25.33;;
64052;SDS011;50299;49.524;8.536;2023-02-13T09:23:40;37.78;;;25.63;;
64052;SDS011;50299;49.524;8.536;2023-02-13T09:26:13;36.50;;;25.48;;
64052;SDS011;50299;49.524;8.536;2023-02-13T09:28:48;37.53;;;28.60;;
64052;SDS011;50299;49.524;8.536;2023-02-13T09:31:45;37.40;;;24.95;;
64052;SDS011;50299;49.524;8.536;2023-02-13T09:34:11;41.33;;;26.98;;
64052;SDS011;50299;49.524;8.536;2023-02-13T09:36:45;38.80;;;27.42;;
64052;SDS011;50299;49.524;8.536;2023-02-13T09:39:18;38.55;;;27.77;;
64052;SDS011;50299;49.524;8.536;2023-02-13T09:41:46;39.47;;;27.40;;
64052;SDS011;50299;49.524;8.536;2023-02-13T09:44:23;45.00;;;29.45;;
64052;SDS011;50299;49.524;8.536;2023-02-13T09:49:45;33.67;;;25.08;;
64052;SDS011;50299;49.524;8.536;2023-02-13T09:52:15;36.72;;;26.63;;
64052;SDS011;50299;49.524;8.536;2023-02-13T09:54:42;37.83;;;28.73;;
64052;SDS011;50299;49.524;8.536;2023-02-13T09:57:16;39.58;;;28.02;;
64052;SDS011;50299;49.524;8.536;2023-02-13T10:00:12;37.58;;;27.92;;
64052;SDS011;50299;49.524;8.536;2023-02-13T10:08:18;37.40;;;25.98;;
64052;SDS011;50299;49.524;8.536;2023-02-13T10:14:00;35.50;;;26.33;;
64052;SDS011;50299;49.524;8.536;2023-02-13T10:22:16;34.42;;;25.10;;
64052;SDS011;50299;49.524;8.536;2023-02-13T10:25:13;33.25;;;22.90;;
64052;SDS011;50299;49.524;8.536;2023-02-13T10:27:53;33.67;;;24.85;;
64052;SDS011;50299;49.524;8.536;2023-02-13T10:30:31;33.85;;;23.02;;
64052;SDS011;50299;49.524;8.536;2023-02-13T10:33:05;32.75;;;22.05;;
64052;SDS011;50299;49.524;8.536;2023-02-13T10:38:40;27.90;;;21.73;;
64052;SDS011;50299;49.524;8.536;2023-02-13T10:42:03;26.17;;;20.88;;
64052;SDS011;50299;49.524;8.536;2023-02-13T10:44:54;28.20;;;20.58;;
64052;SDS011;50299;49.524;8.536;2023-02-13T10:53:34;25.27;;;20.80;;
64052;SDS011;50299;49.524;8.536;2023-02-13T10:56:22;25.88;;;19.50;;
64052;SDS011;50299;49.524;8.536;2023-02-13T10:58:53;30.70;;;22.13;;
64052;SDS011;50299;49.524;8.536;2023-02-13T11:04:18;23.70;;;20.77;;
64052;SDS011;50299;49.524;8.536;2023-02-13T11:06:54;31.33;;;23.80;;
64052;SDS011;50299;49.524;8.536;2023-02-13T11:09:24;32.85;;;24.45;;
64052;SDS011;50299;49.524;8.536;2023-02-13T11:11:51;40.78;;;29.65;;
64052;SDS011;50299;49.524;8.536;2023-02-13T11:14:25;36.65;;;27.85;;
64052;SDS011;50299;49.524;8.536;2023-02-13T11:16:59;38.08;;;27.63;;
64052;SDS011;50299;49.524;8.536;2023-02-13T11:19:36;35.05;;;26.67;;
64052;SDS011;50299;49.524;8.536;2023-02-13T11:22:12;31.90;;;26.25;;
64052;SDS011;50299;49.524;8.536;2023-02-13T11:24:49;38.10;;;26.60;;
64052;SDS011;50299;49.524;8.536;2023-02-13T11:27:29;35.20;;;26.85;;
64052;SDS011;50299;49.524;8.536;2023-02-13T11:30:01;34.50;;;25.70;;
64052;SDS011;50299;49.524;8.536;2023-02-13T11:32:59;36.28;;;25.63;;
64052;SDS011;50299;49.524;8.536;2023-02-13T11:35:37;33.45;;;25.52;;
64052;SDS011;50299;49.524;8.536;2023-02-13T11:40:39;33.38;;;24.83;;
64052;SDS011;50299;49.524;8.536;2023-02-13T11:43:25;30.67;;;23.25;;
64052;SDS011;50299;49.524;8.536;2023-02-13T11:46:04;32.88;;;24.08;;
64052;SDS011;50299;49.524;8.536;2023-02-13T11:48:43;33.42;;;24.60;;
64052;SDS011;50299;49.524;8.536;2023-02-13T11:51:33;33.25;;;25.15;;
64052;SDS011;50299;49.524;8.536;2023-02-13T11:54:16;31.27;;;23.48;;
64052;SDS011;50299;49.524;8.536;2023-02-13T11:59:51;29.25;;;21.13;;
64052;SDS011;50299;49.524;8.536;2023-02-13T12:02:27;31.13;;;22.08;;
64052;SDS011;50299;49.524;8.536;2023-02-13T12:05:15;33.10;;;24.60;;
64052;SDS011;50299;49.524;8.536;2023-02-13T12:07:51;33.53;;;26.13;;
64052;SDS011;50299;49.524;8.536;2023-02-13T12:10:24;31.95;;;23.00;;
64052;SDS011;50299;49.524;8.536;2023-02-13T12:13:14;26.17;;;20.95;;
64052;SDS011;50299;49.524;8.536;2023-02-13T12:15:50;27.65;;;21.52;;
64052;SDS011;50299;49.524;8.536;2023-02-13T12:18:48;32.78;;;23.42;;
64052;SDS011;50299;49.524;8.536;2023-02-13T12:33:07;30.00;;;22.10;;
64052;SDS011;50299;49.524;8.536;2023-02-13T12:41:45;27.90;;;21.63;;
64052;SDS011;50299;49.524;8.536;2023-02-13T12:44:56;31.30;;;22.63;;
64052;SDS011;50299;49.524;8.536;2023-02-13T12:47:38;29.88;;;21.30;;
64052;SDS011;50299;49.524;8.536;2023-02-13T12:50:45;26.17;;;20.35;;
64052;SDS011;50299;49.524;8.536;2023-02-13T12:56:22;27.00;;;20.90;;
64052;SDS011;50299;49.524;8.536;2023-02-13T13:11:16;28.42;;;21.63;;
64052;SDS011;50299;49.524;8.536;2023-02-13T13:13:45;27.77;;;20.52;;
64052;SDS011;50299;49.524;8.536;2023-02-13T13:16:20;25.35;;;18.83;;
64052;SDS011;50299;49.524;8.536;2023-02-13T13:22:08;26.60;;;19.48;;
64052;SDS011;50299;49.524;8.536;2023-02-13T13:24:56;27.67;;;20.65;;
64052;SDS011;50299;49.524;8.536;2023-02-13T13:27:32;26.60;;;19.00;;
64052;SDS011;50299;49.524;8.536;2023-02-13T13:30:05;25.33;;;18.55;;
64052;SDS011;50299;49.524;8.536;2023-02-13T13:33:08;24.77;;;18.98;;
64052;SDS011;50299;49.524;8.536;2023-02-13T13:50:18;21.58;;;17.05;;
64052;SDS011;50299;49.524;8.536;2023-02-13T13:58:51;25.23;;;17.92;;
64052;SDS011;50299;49.524;8.536;2023-02-13T14:01:21;22.83;;;16.60;;
64052;SDS011;50299;49.524;8.536;2023-02-13T14:11:52;27.13;;;18.17;;
64052;SDS011;50299;49.524;8.536;2023-02-13T14:17:02;25.25;;;16.42;;
64052;SDS011;50299;49.524;8.536;2023-02-13T14:19:45;24.20;;;17.63;;
64052;SDS011;50299;49.524;8.536;2023-02-13T14:22:25;26.17;;;19.35;;
64052;SDS011;50299;49.524;8.536;2023-02-13T14:25:02;24.77;;;16.95;;
64052;SDS011;50299;49.524;8.536;2023-02-13T14:27:39;24.90;;;17.63;;
64052;SDS011;50299;49.524;8.536;2023-02-13T14:30:29;24.50;;;17.13;;
64052;SDS011;50299;49.524;8.536;2023-02-13T14:33:06;24.75;;;17.20;;
64052;SDS011;50299;49.524;8.536;2023-02-13T14:35:58;21.05;;;17.20;;
64052;SDS011;50299;49.524;8.536;2023-02-13T14:38:42;24.00;;;16.10;;
64052;SDS011;50299;49.524;8.536;2023-02-13T14:46:56;22.15;;;16.90;;
64052;SDS011;50299;49.524;8.536;2023-02-13T14:52:14;24.35;;;17.38;;
64052;SDS011;50299;49.524;8.536;2023-02-13T14:54:46;24.13;;;17.38;;
64052;SDS011;50299;49.524;8.536;2023-02-13T14:57:23;22.90;;;16.65;;
64052;SDS011;50299;49.524;8.536;2023-02-13T14:59:55;21.63;;;16.85;;
64052;SDS011;50299;49.524;8.536;2023-02-13T15:02:32;27.55;;;18.27;;
64052;SDS011;50299;49.524;8.536;2023-02-13T15:05:21;25.17;;;18.08;;
64052;SDS011;50299;49.524;8.536;2023-02-13T15:08:12;25.02;;;18.10;;
64052;SDS011;50299;49.524;8.536;2023-02-13T15:10:42;24.20;;;18.85;;
64052;SDS011;50299;49.524;8.536;2023-02-13T15:13:25;29.05;;;19.35;;
64052;SDS011;50299;49.524;8.536;2023-02-13T15:16:06;24.50;;;18.45;;
64052;SDS011;50299;49.524;8.536;2023-02-13T15:18:50;28.50;;;18.48;;
64052;SDS011;50299;49.524;8.536;2023-02-13T15:21:24;27.10;;;18.65;;
64052;SDS011;50299;49.524;8.536;2023-02-13T15:23:57;26.15;;;18.35;;
64052;SDS011;50299;49.524;8.536;2023-02-13T15:26:31;27.80;;;17.98;;
64052;SDS011;50299;49.524;8.536;2023-02-13T15:29:12;24.10;;;18.05;;
64052;SDS011;50299;49.524;8.536;2023-02-13T15:32:16;24.63;;;17.17;;
64052;SDS011;50299;49.524;8.536;2023-02-13T15:34:47;26.52;;;19.60;;
64052;SDS011;50299;49.524;8.536;2023-02-13T15:37:26;27.85;;;19.15;;
64052;SDS011;50299;49.524;8.536;2023-02-13T15:42:50;28.95;;;19.42;;
64052;SDS011;50299;49.524;8.536;2023-02-13T15:45:25;29.17;;;19.55;;
64052;SDS011;50299;49.524;8.536;2023-02-13T15:47:53;27.73;;;19.33;;
64052;SDS011;50299;49.524;8.536;2023-02-13T15:50:32;30.77;;;19.17;;
64052;SDS011;50299;49.524;8.536;2023-02-13T15:53:09;28.83;;;19.73;;
64052;SDS011;50299;49.524;8.536;2023-02-13T15:55:40;29.08;;;19.25;;
64052;SDS011;50299;49.524;8.536;2023-02-13T15:58:16;22.95;;;16.77;;
64052;SDS011;50299;49.524;8.536;2023-02-13T16:00:42;25.73;;;16.05;;
64052;SDS011;50299;49.524;8.536;2023-02-13T16:03:14;23.45;;;16.13;;
64052;SDS011;50299;49.524;8.536;2023-02-13T16:05:50;21.70;;;15.95;;
64052;SDS011;50299;49.524;8.536;2023-02-13T16:08:35;24.05;;;16.50;;
64052;SDS011;50299;49.524;8.536;2023-02-13T16:16:50;20.98;;;14.70;;
64052;SDS011;50299;49.524;8.536;2023-02-13T16:19:36;22.30;;;16.00;;
64052;SDS011;50299;49.524;8.536;2023-02-13T16:22:30;29.60;;;16.33;;
64052;SDS011;50299;49.524;8.536;2023-02-13T16:25:08;25.05;;;17.23;;
64052;SDS011;50299;49.524;8.536;2023-02-13T16:27:55;30.75;;;20.25;;
64052;SDS011;50299;49.524;8.536;2023-02-13T16:30:31;34.35;;;20.20;;
64052;SDS011;50299;49.524;8.536;2023-02-13T16:38:45;35.08;;;23.05;;
64052;SDS011;50299;49.524;8.536;2023-02-13T16:43:53;33.97;;;22.30;;
64052;SDS011;50299;49.524;8.536;2023-02-13T16:49:17;29.25;;;19.77;;
64052;SDS011;50299;49.524;8.536;2023-02-13T16:54:52;32.70;;;21.80;;
64052;SDS011;50299;49.524;8.536;2023-02-13T16:57:22;30.27;;;20.90;;
64052;SDS011;50299;49.524;8.536;2023-02-13T17:00:05;35.47;;;21.58;;
64052;SDS011;50299;49.524;8.536;2023-02-13T17:02:45;31.60;;;20.25;;
64052;SDS011;50299;49.524;8.536;2023-02-13T17:05:26;31.90;;;21.58;;
64052;SDS011;50299;49.524;8.536;2023-02-13T17:07:56;32.75;;;20.20;;
64052;SDS011;50299;49.524;8.536;2023-02-13T17:10:32;30.48;;;21.88;;
64052;SDS011;50299;49.524;8.536;2023-02-13T17:13:21;32.72;;;21.17;;
64052;SDS011;50299;49.524;8.536;2023-02-13T17:15:58;32.70;;;22.80;;
64052;SDS011;50299;49.524;8.536;2023-02-13T17:18:32;33.58;;;22.88;;
64052;SDS011;50299;49.524;8.536;2023-02-13T17:21:12;36.70;;;23.88;;
64052;SDS011;50299;49.524;8.536;2023-02-13T17:23:38;35.00;;;24.02;;
64052;SDS011;50299;49.524;8.536;2023-02-13T17:26:06;32.70;;;22.38;;
64052;SDS011;50299;49.524;8.536;2023-02-13T17:28:40;34.72;;;23.42;;
64052;SDS011;50299;49.524;8.536;2023-02-13T17:31:13;33.53;;;24.50;;
64052;SDS011;50299;49.524;8.536;2023-02-13T17:33:39;37.25;;;25.48;;
64052;SDS011;50299;49.524;8.536;2023-02-13T17:36:12;38.33;;;25.52;;
64052;SDS011;50299;49.524;8.536;2023-02-13T17:38:41;35.50;;;23.05;;
64052;SDS011;50299;49.524;8.536;2023-02-13T17:41:14;36.90;;;25.15;;
64052;SDS011;50299;49.524;8.536;2023-02-13T17:43:47;36.45;;;24.92;;
64052;SDS011;50299;49.524;8.536;2023-02-13T17:46:16;36.47;;;24.75;;
64052;SDS011;50299;49.524;8.536;2023-02-13T17:48:42;41.97;;;26.92;;
64052;SDS011;50299;49.524;8.536;2023-02-13T17:51:15;39.10;;;26.90;;
64052;SDS011;50299;49.524;8.536;2023-02-13T17:53:41;38.15;;;25.40;;
64052;SDS011;50299;49.524;8.536;2023-02-13T17:56:08;44.78;;;27.80;;
64052;SDS011;50299;49.524;8.536;2023-02-13T17:58:41;42.20;;;28.00;;